Stations météo

Publicité
St-Raphael, France (7680): Température de l'air & dewpoint: 13.09.2020 17:00:00 - 19.09.2020 17:00:00 (CEST)St-Raphael, France (7680): Vitesse du vent & gusts: 13.09.2020 17:00:00 - 19.09.2020 17:00:00 (CEST)St-Raphael, France (7680): Direction du vent: 13.09.2020 17:00:00 - 19.09.2020 17:00:00 (CEST)St-Raphael, France (7680): Quantités de précipitations: 13.09.2020 17:00:00 - 19.09.2020 17:00:00 (CEST)
Date & Time tt [°C] td [°C] ff [km/h] ff [knt] fx [km/h] fx [knt] dd rr [mm]
19.09.2020 17:00:00 - - - - - - - -
19.09.2020 16:00:00 27,5 16,5 17 9 35 19 E 0,0
19.09.2020 15:00:00 28,3 18,7 11 6 29 16 E 0,0
19.09.2020 14:00:00 28,4 18,8 13 7 31 17 E 0,0
19.09.2020 13:00:00 26,4 17,7 15 8 29 16 E 0,0
19.09.2020 12:00:00 27,5 17,1 7 4 20 11 E 0,0
19.09.2020 11:00:00 27,7 16,9 6 3 12 7 ESE 0,0
19.09.2020 10:00:00 23,5 17,5 3 2 9 5 NW 0,0
19.09.2020 09:00:00 21,4 16,4 0 0 11 6 N 0,0
19.09.2020 08:00:00 19,2 16,4 3 2 8 4 WNW 0,0
19.09.2020 07:00:00 19,8 16,2 4 2 9 5 WNW 0,0
19.09.2020 06:00:00 20,0 16,8 3 2 12 6 W 0,2
19.09.2020 05:00:00 21,0 16,2 4 2 14 8 NNE 0,0
19.09.2020 04:00:00 21,5 15,3 4 2 9 5 N 0,0
19.09.2020 03:00:00 21,3 15,8 5 3 19 10 NW 0,0
19.09.2020 02:00:00 21,4 15,0 4 2 9 5 WNW 0,0
19.09.2020 01:00:00 21,6 15,4 4 2 8 4 WNW 0,0
19.09.2020 00:00:00 21,1 15,2 5 3 9 5 WNW 0,0
18.09.2020 23:00:00 21,5 16,0 4 2 8 5 NW 0,0
18.09.2020 22:00:00 - - - - - - - -
18.09.2020 21:00:00 22,8 19,2 3 1 5 3 NE 0,0
18.09.2020 20:00:00 23,5 18,8 2 1 9 5 S 0,0
18.09.2020 19:00:00 25,6 19,9 5 3 10 6 SSE 0,0
18.09.2020 18:00:00 27,4 18,9 6 3 16 8 SSE 0,0
18.09.2020 17:00:00 27,8 19,3 7 4 18 10 SSE 0,0
18.09.2020 16:00:00 28,9 18,4 9 5 20 11 SSE 0,0
18.09.2020 15:00:00 29,4 17,6 9 5 18 10 SE 0,0
18.09.2020 14:00:00 29,4 17,6 9 5 19 10 SE 0,0
18.09.2020 13:00:00 29,5 16,7 8 5 16 9 SE 0,0
18.09.2020 12:00:00 29,9 15,6 6 3 14 7 SSE 0,0
18.09.2020 11:00:00 28,5 15,4 4 2 13 7 SSW 0,0
18.09.2020 10:00:00 23,7 14,7 6 4 15 8 WNW 0,0
18.09.2020 09:00:00 20,2 14,6 8 4 17 9 NW 0,0
18.09.2020 08:00:00 17,5 14,0 6 3 14 8 NW 0,0
18.09.2020 07:00:00 17,0 13,9 6 3 10 5 WNW 0,0
18.09.2020 06:00:00 17,1 14,0 5 3 9 5 WNW 0,0
18.09.2020 05:00:00 17,4 14,3 4 2 12 7 W 0,0
18.09.2020 04:00:00 - - - - - - - -
18.09.2020 03:00:00 18,6 15,1 5 3 9 5 WNW 0,0
18.09.2020 02:00:00 19,0 15,1 3 2 9 5 W 0,0
18.09.2020 01:00:00 20,0 15,8 5 3 10 5 NW 0,0
18.09.2020 00:00:00 20,5 16,1 3 1 6 3 WNW 0,0
17.09.2020 23:00:00 21,3 16,3 3 2 10 5 NW 0,0
17.09.2020 22:00:00 - - - - - - - -
17.09.2020 21:00:00 22,8 19,8 0 0 5 3 N 0,0
17.09.2020 20:00:00 24,1 19,8 2 1 7 4 SSE 0,0
17.09.2020 19:00:00 - - - - - - - -
17.09.2020 18:00:00 - - - - - - - -
17.09.2020 17:00:00 26,5 20,1 8 5 21 11 SE 0,0
17.09.2020 16:00:00 27,9 19,9 8 4 21 11 SE 0,0
17.09.2020 15:00:00 28,1 19,3 8 5 20 11 SE 0,0
17.09.2020 14:00:00 27,9 18,0 9 5 21 11 SE 0,0
17.09.2020 13:00:00 28,4 17,9 10 5 19 11 SSE 0,0
17.09.2020 12:00:00 27,9 18,3 9 5 18 10 SE 0,0
17.09.2020 11:00:00 28,0 15,3 2 1 12 7 NE 0,0
17.09.2020 10:00:00 24,3 15,8 6 3 15 8 NW 0,0
17.09.2020 09:00:00 21,0 15,8 8 5 17 9 NNW 0,0
17.09.2020 08:00:00 18,8 15,3 6 3 15 8 NW 0,0
17.09.2020 07:00:00 17,5 15,1 6 3 9 5 W 0,0
17.09.2020 06:00:00 18,1 15,7 3 2 11 6 NW 0,0
17.09.2020 05:00:00 18,8 16,2 3 2 10 5 NW 0,0
17.09.2020 04:00:00 19,0 16,6 5 3 10 5 NW 0,0
17.09.2020 03:00:00 19,3 16,5 5 3 9 5 W 0,0
17.09.2020 02:00:00 20,3 17,7 3 2 10 6 N 0,0
17.09.2020 01:00:00 20,7 17,5 3 2 9 5 NW 0,0
17.09.2020 00:00:00 21,2 17,2 0 0 9 5 N 0,0
16.09.2020 23:00:00 22,5 17,8 4 2 10 6 NW 0,0
16.09.2020 22:00:00 22,7 18,2 2 1 6 4 W 0,0
16.09.2020 21:00:00 23,8 18,2 3 2 19 10 W 0,0
16.09.2020 20:00:00 25,1 18,3 7 4 18 10 ENE 0,0
16.09.2020 19:00:00 26,2 18,3 10 5 20 11 E 0,0
16.09.2020 18:00:00 26,9 19,8 10 5 23 13 E 0,0
16.09.2020 17:00:00 26,9 21,2 10 6 27 15 ESE 0,0
16.09.2020 16:00:00 28,1 20,4 11 6 26 14 SSE 0,0
16.09.2020 15:00:00 28,0 20,0 10 6 28 15 SE 0,0
16.09.2020 14:00:00 27,8 19,1 12 6 28 15 SE 0,0
16.09.2020 13:00:00 27,7 18,1 10 5 24 13 SSE 0,0
16.09.2020 12:00:00 28,0 16,3 10 5 19 11 SSE 0,0
16.09.2020 11:00:00 27,3 15,3 4 2 12 7 WNW 0,0
16.09.2020 10:00:00 24,8 16,0 5 3 16 9 NNW 0,0
16.09.2020 09:00:00 22,1 15,4 5 3 17 9 NNW 0,0
16.09.2020 08:00:00 19,5 14,7 6 3 14 8 NNW 0,0
16.09.2020 07:00:00 19,1 14,6 5 3 16 9 NNW 0,0
16.09.2020 06:00:00 19,6 14,6 8 5 19 11 NNW 0,0
16.09.2020 05:00:00 19,9 14,5 9 5 19 10 NNW 0,0
16.09.2020 04:00:00 20,1 14,5 4 2 13 7 N 0,0
16.09.2020 03:00:00 20,2 14,3 6 3 11 6 NNW 0,0
16.09.2020 02:00:00 20,3 14,2 5 3 11 6 N 0,0
16.09.2020 01:00:00 21,1 14,5 4 2 13 7 NW 0,0
16.09.2020 00:00:00 22,3 14,4 6 3 13 7 NNW 0,0
15.09.2020 23:00:00 22,7 15,0 7 4 14 8 NW 0,0
15.09.2020 22:00:00 - - - - - - - -
15.09.2020 21:00:00 23,7 15,7 4 2 8 4 WNW 0,0
15.09.2020 20:00:00 24,4 16,6 2 1 5 3 N 0,0
15.09.2020 19:00:00 27,0 15,4 2 1 12 7 ENE 0,0
15.09.2020 18:00:00 28,1 17,0 7 4 16 8 S 0,0
15.09.2020 17:00:00 28,8 17,3 7 4 18 10 SSE 0,0
15.09.2020 16:00:00 29,5 17,0 8 4 22 12 SE 0,0
15.09.2020 15:00:00 30,2 17,0 8 5 24 13 SSE 0,0
15.09.2020 14:00:00 30,9 15,7 8 4 21 11 SSE 0,0
15.09.2020 13:00:00 30,1 15,8 9 5 20 11 SSE 0,0
15.09.2020 12:00:00 30,8 14,0 9 5 19 11 SE 0,0
15.09.2020 11:00:00 28,0 15,6 6 3 15 8 NW 0,0
15.09.2020 10:00:00 25,0 15,3 6 4 22 12 NW 0,0
15.09.2020 09:00:00 21,4 14,8 9 5 21 12 NW 0,0
15.09.2020 08:00:00 19,8 14,6 8 4 21 11 NW 0,0
15.09.2020 07:00:00 19,3 14,3 8 4 18 10 NW 0,0
15.09.2020 06:00:00 19,3 14,5 8 4 17 9 NW 0,0
15.09.2020 05:00:00 19,9 14,7 7 4 17 9 NW 0,0
15.09.2020 04:00:00 20,3 14,9 7 4 15 8 NW 0,0
15.09.2020 03:00:00 19,4 15,1 7 4 14 7 NW 0,0
15.09.2020 02:00:00 20,9 15,0 4 2 9 5 NNW 0,0
15.09.2020 01:00:00 20,7 15,5 4 2 10 5 WNW 0,0
15.09.2020 00:00:00 21,1 15,6 3 2 10 5 W 0,0
14.09.2020 23:00:00 22,1 15,0 4 2 8 5 NW 0,0
14.09.2020 22:00:00 23,7 15,2 6 3 10 5 NW 0,0
14.09.2020 21:00:00 24,1 16,4 4 2 9 5 WNW 0,0
14.09.2020 20:00:00 25,4 17,1 0 0 5 3 N 0,0
14.09.2020 19:00:00 28,8 16,4 3 2 10 5 S 0,0
14.09.2020 18:00:00 30,3 16,7 2 1 13 7 SE 0,0
14.09.2020 17:00:00 29,4 17,9 6 3 21 12 SE 0,0
14.09.2020 16:00:00 30,1 17,5 10 5 21 11 SE 0,0
14.09.2020 15:00:00 30,5 17,9 9 5 20 11 SE 0,0
14.09.2020 14:00:00 31,1 17,0 10 6 23 12 SE 0,0
14.09.2020 13:00:00 30,6 17,3 9 5 21 12 SE 0,0
14.09.2020 12:00:00 29,5 18,9 8 5 20 11 SE 0,0
14.09.2020 11:00:00 29,1 18,5 6 3 14 8 SSE 0,0
14.09.2020 10:00:00 25,1 15,7 9 5 19 10 WNW 0,0
14.09.2020 09:00:00 21,7 15,5 5 3 18 10 NW 0,0
14.09.2020 08:00:00 19,3 15,0 10 5 20 11 NW 0,0
14.09.2020 07:00:00 19,2 14,9 6 3 13 7 NW 0,0
14.09.2020 06:00:00 19,9 14,9 6 3 19 10 NNW 0,0
14.09.2020 05:00:00 - - - - - - - -
14.09.2020 04:00:00 20,9 15,0 7 4 17 9 NW 0,0
14.09.2020 03:00:00 21,2 15,1 6 4 16 9 NW 0,0
14.09.2020 02:00:00 21,7 15,3 8 4 16 9 NW 0,0
14.09.2020 01:00:00 21,5 15,6 5 3 14 7 WNW 0,0
14.09.2020 00:00:00 23,2 15,5 6 3 14 7 NW 0,0
13.09.2020 23:00:00 23,6 15,9 4 2 11 6 NNW 0,0
13.09.2020 22:00:00 23,8 16,6 4 2 9 5 NNW 0,0
13.09.2020 21:00:00 24,4 16,1 6 3 9 5 WNW 0,0
13.09.2020 20:00:00 25,7 16,8 5 3 9 5 NW 0,0
13.09.2020 19:00:00 27,3 17,8 5 3 15 8 S 0,0
13.09.2020 18:00:00 28,4 19,1 6 4 15 8 SSE 0,0
13.09.2020 17:00:00 28,8 20,5 7 4 20 11 SSE 0,0

tt = Température de l'air
td = dewpoint
ff = Vitesse du vent
fx = gusts
dd = Direction du vent
rr = Quantités de précipitations

stations d'obs. à proximité